Oak Lawn, Illinois
Current Conditions -  °F | °C
As of 6:10 AM on Thursday 29 Jan 2015 (Local Time) from KMDW Reporting Station
Overcast Overcast  
Wind Chill: 31°   Ceiling: 2900
Heat Index: 36°   Visibility: 10mi
Dew Point: 29°   Wind: 6mph
Humidity: 76%   Direction: 240°WSW
Pressure: 29.71"   Gusts: NA
Location:  41.72°N, 87.75°W
Report Text: KMDW 291210Z 24005KT 10SM OVC029 02/M02 A2971 RMK AO2 T00221017
Loading
Personal Weather Stations






























Interactive Weather Map New forecast layout! Learn more

10-Day Weather Forecast

Advertisements
Track Severe Weather on mobile